KDCU

Pryor Field Regional Airport

Decatur, Alabama, USA
METAR KDCU 230753Z AUTO 15010KT 10SM CLR 17/15 A3031 RMK AO2 SLP259 T01670150
Observed Flight Rules
Feb-23 @ 07:53 UTC (18 minutes ago) Visual Flight Rules
Wind Visibility Clouds
150° at 10 knots 10 miles
  • Clear skies
Temperatures Readings
Current 17°C / 63°F
Dewpoint 15°C / 59°F
Humidity 88%
Altimeter 30.31" Hg
Pressure 1025.9 hPa
Elevation 176
METAR KDCU 230753Z AUTO 15010KT 10SM CLR 17/15 A3031 RMK AO2 SLP259 T01670150
Observed Flight Rules
Feb-23 @ 07:53 UTC
(18 minutes ago)
VFR
Wind Visibility
150° at 10 knots 10 miles
Clouds
  • Clear skies
Temperature Dewpoint
17°C / 63°F 15°C / 59°F
Humidity Altimeter Pressure
88% 30.31" Hg 1025.9 hPa